sensor_id;sensor_type;location;lat;lon;timestamp;pressure;altitude;pressure_sealevel;temperature;humidity
72798;BME280;61084;55.816;37.036;2023-07-13T00:01:30;98606.31;;;13.82;67.91
72798;BME280;61084;55.816;37.036;2023-07-13T00:03:56;98597.69;;;13.80;68.22
72798;BME280;61084;55.816;37.036;2023-07-13T00:06:23;98598.53;;;13.81;68.02
72798;BME280;61084;55.816;37.036;2023-07-13T00:08:49;98594.41;;;13.77;67.92
72798;BME280;61084;55.816;37.036;2023-07-13T00:11:16;98599.34;;;13.81;68.76
72798;BME280;61084;55.816;37.036;2023-07-13T00:13:43;98598.53;;;13.81;68.00
72798;BME280;61084;55.816;37.036;2023-07-13T00:16:11;98604.75;;;13.80;68.16
72798;BME280;61084;55.816;37.036;2023-07-13T00:18:37;98595.88;;;13.81;68.10
72798;BME280;61084;55.816;37.036;2023-07-13T00:21:04;98597.81;;;13.79;68.51
72798;BME280;61084;55.816;37.036;2023-07-13T00:23:37;98596.84;;;13.80;68.46
72798;BME280;61084;55.816;37.036;2023-07-13T00:26:06;98589.91;;;13.79;68.34
72798;BME280;61084;55.816;37.036;2023-07-13T00:28:33;98593.34;;;13.79;68.47
72798;BME280;61084;55.816;37.036;2023-07-13T00:31:01;98590.72;;;13.79;68.23
72798;BME280;61084;55.816;37.036;2023-07-13T00:33:28;98585.56;;;13.78;68.41
72798;BME280;61084;55.816;37.036;2023-07-13T00:35:55;98595.88;;;13.81;68.39
72798;BME280;61084;55.816;37.036;2023-07-13T00:38:22;98592.28;;;13.82;68.56
72798;BME280;61084;55.816;37.036;2023-07-13T00:40:48;98593.13;;;13.82;68.45
72798;BME280;61084;55.816;37.036;2023-07-13T00:43:16;98589.63;;;13.82;68.61
72798;BME280;61084;55.816;37.036;2023-07-13T00:48:15;98593.13;;;13.82;68.61
72798;BME280;61084;55.816;37.036;2023-07-13T00:50:44;98594.78;;;13.83;68.58
72798;BME280;61084;55.816;37.036;2023-07-13T00:53:14;98588.69;;;13.83;68.56
72798;BME280;61084;55.816;37.036;2023-07-13T00:55:40;98594.78;;;13.83;68.55
72798;BME280;61084;55.816;37.036;2023-07-13T00:58:06;98590.34;;;13.84;68.51
72798;BME280;61084;55.816;37.036;2023-07-13T01:00:34;98593.00;;;13.84;68.81
72798;BME280;61084;55.816;37.036;2023-07-13T01:03:00;98595.75;;;13.82;68.50
72798;BME280;61084;55.816;37.036;2023-07-13T01:05:32;98583.41;;;13.83;68.44
72798;BME280;61084;55.816;37.036;2023-07-13T01:08:00;98587.00;;;13.82;68.86
72798;BME280;61084;55.816;37.036;2023-07-13T01:10:36;98586.06;;;13.83;68.97
72798;BME280;61084;55.816;37.036;2023-07-13T01:13:10;98575.59;;;13.81;68.67
72798;BME280;61084;55.816;37.036;2023-07-13T01:18:14;98582.56;;;13.82;68.74
72798;BME280;61084;55.816;37.036;2023-07-13T01:20:41;98573.81;;;13.82;68.72
72798;BME280;61084;55.816;37.036;2023-07-13T01:23:10;98572.00;;;13.82;68.71
72798;BME280;61084;55.816;37.036;2023-07-13T01:25:37;98573.81;;;13.82;68.73
72798;BME280;61084;55.816;37.036;2023-07-13T01:28:06;98576.44;;;13.82;68.69
72798;BME280;61084;55.816;37.036;2023-07-13T01:30:32;98572.88;;;13.83;68.65
72798;BME280;61084;55.816;37.036;2023-07-13T01:33:10;98572.72;;;13.84;68.66
72798;BME280;61084;55.816;37.036;2023-07-13T01:35:36;98563.97;;;13.84;68.72
72798;BME280;61084;55.816;37.036;2023-07-13T01:38:02;98555.22;;;13.83;68.75
72798;BME280;61084;55.816;37.036;2023-07-13T01:40:29;98558.69;;;13.84;68.74
72798;BME280;61084;55.816;37.036;2023-07-13T01:42:58;98565.66;;;13.85;68.66
72798;BME280;61084;55.816;37.036;2023-07-13T01:45:24;98562.19;;;13.84;68.69
72798;BME280;61084;55.816;37.036;2023-07-13T01:47:50;98556.91;;;13.84;68.80
72798;BME280;61084;55.816;37.036;2023-07-13T01:50:17;98563.88;;;13.85;68.72
72798;BME280;61084;55.816;37.036;2023-07-13T01:52:43;98559.53;;;13.84;68.86
72798;BME280;61084;55.816;37.036;2023-07-13T01:55:08;98560.38;;;13.85;68.88
72798;BME280;61084;55.816;37.036;2023-07-13T01:57:34;98557.75;;;13.85;68.81
72798;BME280;61084;55.816;37.036;2023-07-13T02:00:03;98554.13;;;13.86;68.92
72798;BME280;61084;55.816;37.036;2023-07-13T02:02:42;98558.59;;;13.85;68.91
72798;BME280;61084;55.816;37.036;2023-07-13T02:05:11;98554.13;;;13.86;68.87
72798;BME280;61084;55.816;37.036;2023-07-13T02:07:37;98556.78;;;13.86;69.02
72798;BME280;61084;55.816;37.036;2023-07-13T02:10:05;98561.22;;;13.85;68.78
72798;BME280;61084;55.816;37.036;2023-07-13T02:12:31;98548.16;;;13.84;68.67
72798;BME280;61084;55.816;37.036;2023-07-13T02:14:57;98556.06;;;13.84;69.01
72798;BME280;61084;55.816;37.036;2023-07-13T02:17:23;98549.13;;;13.83;69.41
72798;BME280;61084;55.816;37.036;2023-07-13T02:19:48;98549.84;;;13.85;69.18
72798;BME280;61084;55.816;37.036;2023-07-13T02:22:14;98550.53;;;13.87;69.15
72798;BME280;61084;55.816;37.036;2023-07-13T02:24:40;98549.56;;;13.88;69.06
72798;BME280;61084;55.816;37.036;2023-07-13T02:27:06;98548.50;;;13.90;69.11
72798;BME280;61084;55.816;37.036;2023-07-13T02:29:32;98540.56;;;13.90;69.11
72798;BME280;61084;55.816;37.036;2023-07-13T02:31:58;98551.84;;;13.92;69.25
72798;BME280;61084;55.816;37.036;2023-07-13T02:34:23;98538.66;;;13.92;69.14
72798;BME280;61084;55.816;37.036;2023-07-13T02:36:49;98540.22;;;13.95;69.16
72798;BME280;61084;55.816;37.036;2023-07-13T02:39:15;98544.41;;;13.97;68.97
72798;BME280;61084;55.816;37.036;2023-07-13T02:41:41;98539.97;;;13.98;69.21
72798;BME280;61084;55.816;37.036;2023-07-13T02:44:07;98526.16;;;13.94;69.15
72798;BME280;61084;55.816;37.036;2023-07-13T02:46:35;98530.28;;;13.98;68.95
72798;BME280;61084;55.816;37.036;2023-07-13T02:49:02;98532.78;;;14.00;69.34
72798;BME280;61084;55.816;37.036;2023-07-13T02:51:28;98530.97;;;14.00;69.27
72798;BME280;61084;55.816;37.036;2023-07-13T02:53:54;98532.41;;;14.04;69.11
72798;BME280;61084;55.816;37.036;2023-07-13T02:56:25;98528.56;;;14.08;69.42
72798;BME280;61084;55.816;37.036;2023-07-13T02:58:51;98526.88;;;14.07;68.91
72798;BME280;61084;55.816;37.036;2023-07-13T03:01:17;98524.94;;;14.09;69.33
72798;BME280;61084;55.816;37.036;2023-07-13T03:03:45;98521.34;;;14.10;69.14
72798;BME280;61084;55.816;37.036;2023-07-13T03:06:13;98523.63;;;14.15;69.33
72798;BME280;61084;55.816;37.036;2023-07-13T03:08:47;98529.75;;;14.15;69.50
72798;BME280;61084;55.816;37.036;2023-07-13T03:11:17;98530.81;;;14.13;69.40
72798;BME280;61084;55.816;37.036;2023-07-13T03:13:47;98525.28;;;14.16;69.60
72798;BME280;61084;55.816;37.036;2023-07-13T03:16:14;98529.47;;;14.18;69.42
72798;BME280;61084;55.816;37.036;2023-07-13T03:18:46;98525.75;;;14.21;69.51
72798;BME280;61084;55.816;37.036;2023-07-13T03:21:13;98529.09;;;14.23;69.16
72798;BME280;61084;55.816;37.036;2023-07-13T03:23:39;98534.28;;;14.24;70.02
72798;BME280;61084;55.816;37.036;2023-07-13T03:26:25;98534.84;;;14.28;69.65
72798;BME280;61084;55.816;37.036;2023-07-13T03:28:51;98540.88;;;14.30;69.38
72798;BME280;61084;55.816;37.036;2023-07-13T03:31:27;98534.25;;;14.35;69.38
72798;BME280;61084;55.816;37.036;2023-07-13T03:33:55;98538.44;;;14.38;69.41
72798;BME280;61084;55.816;37.036;2023-07-13T03:36:24;98550.41;;;14.42;69.70
72798;BME280;61084;55.816;37.036;2023-07-13T03:38:58;98551.25;;;14.43;69.56
72798;BME280;61084;55.816;37.036;2023-07-13T03:41:29;98552.81;;;14.45;69.57
72798;BME280;61084;55.816;37.036;2023-07-13T03:43:57;98540.19;;;14.49;69.60
72798;BME280;61084;55.816;37.036;2023-07-13T03:46:25;98541.31;;;14.46;69.34
72798;BME280;61084;55.816;37.036;2023-07-13T03:48:51;98545.47;;;14.49;69.25
72798;BME280;61084;55.816;37.036;2023-07-13T03:51:17;98546.91;;;14.53;69.41
72798;BME280;61084;55.816;37.036;2023-07-13T03:53:45;98539.81;;;14.53;69.19
72798;BME280;61084;55.816;37.036;2023-07-13T03:56:15;98543.16;;;14.55;69.34
72798;BME280;61084;55.816;37.036;2023-07-13T03:58:45;98547.34;;;14.58;69.61
72798;BME280;61084;55.816;37.036;2023-07-13T04:01:17;98543.75;;;14.59;69.32
72798;BME280;61084;55.816;37.036;2023-07-13T04:03:44;98539.06;;;14.62;69.62
72798;BME280;61084;55.816;37.036;2023-07-13T04:06:32;98543.97;;;14.67;69.43
72798;BME280;61084;55.816;37.036;2023-07-13T04:09:00;98549.94;;;14.69;69.32
72798;BME280;61084;55.816;37.036;2023-07-13T04:11:28;98543.56;;;14.71;69.38
72798;BME280;61084;55.816;37.036;2023-07-13T04:13:55;98544.16;;;14.75;69.45
72798;BME280;61084;55.816;37.036;2023-07-13T04:16:21;98538.63;;;14.78;69.40
72798;BME280;61084;55.816;37.036;2023-07-13T04:18:47;98541.72;;;14.83;69.62
72798;BME280;61084;55.816;37.036;2023-07-13T04:21:14;98542.44;;;14.85;69.67
72798;BME280;61084;55.816;37.036;2023-07-13T04:23:40;98543.97;;;14.87;69.89
72798;BME280;61084;55.816;37.036;2023-07-13T04:26:06;98538.00;;;14.85;69.35
72798;BME280;61084;55.816;37.036;2023-07-13T04:28:33;98549.00;;;14.90;69.85
72798;BME280;61084;55.816;37.036;2023-07-13T04:30:59;98550.53;;;14.93;69.36
72798;BME280;61084;55.816;37.036;2023-07-13T04:33:26;98543.47;;;14.93;69.25
72798;BME280;61084;55.816;37.036;2023-07-13T04:35:54;98554.59;;;14.97;69.57
72798;BME280;61084;55.816;37.036;2023-07-13T04:38:25;98555.19;;;15.00;69.33
72798;BME280;61084;55.816;37.036;2023-07-13T04:40:58;98555.78;;;15.04;69.37
72798;BME280;61084;55.816;37.036;2023-07-13T04:43:25;98549.09;;;15.09;69.11
72798;BME280;61084;55.816;37.036;2023-07-13T04:45:52;98553.59;;;15.09;68.66
72798;BME280;61084;55.816;37.036;2023-07-13T04:48:18;98552.97;;;15.05;68.90
72798;BME280;61084;55.816;37.036;2023-07-13T04:50:45;98549.94;;;15.10;69.11
72798;BME280;61084;55.816;37.036;2023-07-13T04:53:12;98553.06;;;15.15;69.15
72798;BME280;61084;55.816;37.036;2023-07-13T04:55:38;98559.03;;;15.17;68.82
72798;BME280;61084;55.816;37.036;2023-07-13T04:58:04;98548.34;;;15.19;68.91
72798;BME280;61084;55.816;37.036;2023-07-13T05:00:31;98556.47;;;15.27;68.84
72798;BME280;61084;55.816;37.036;2023-07-13T05:02:58;98551.75;;;15.30;69.45
72798;BME280;61084;55.816;37.036;2023-07-13T05:05:25;98543.41;;;15.35;68.75
72798;BME280;61084;55.816;37.036;2023-07-13T05:07:52;98552.63;;;15.40;68.83
72798;BME280;61084;55.816;37.036;2023-07-13T05:10:17;98554.16;;;15.43;68.86
72798;BME280;61084;55.816;37.036;2023-07-13T05:12:44;98551.31;;;15.46;69.05
72798;BME280;61084;55.816;37.036;2023-07-13T05:15:10;98546.56;;;15.49;69.01
72798;BME280;61084;55.816;37.036;2023-07-13T05:17:36;98550.50;;;15.55;68.75
72798;BME280;61084;55.816;37.036;2023-07-13T05:20:06;98549.97;;;15.61;68.77
72798;BME280;61084;55.816;37.036;2023-07-13T05:22:32;98554.88;;;15.65;68.75
72798;BME280;61084;55.816;37.036;2023-07-13T05:24:57;98552.63;;;15.70;68.35
72798;BME280;61084;55.816;37.036;2023-07-13T05:27:23;98546.53;;;15.70;68.32
72798;BME280;61084;55.816;37.036;2023-07-13T05:29:49;98538.75;;;15.78;68.51
72798;BME280;61084;55.816;37.036;2023-07-13T05:32:16;98547.28;;;15.91;68.23
72798;BME280;61084;55.816;37.036;2023-07-13T05:34:42;98544.69;;;16.01;68.08
72798;BME280;61084;55.816;37.036;2023-07-13T05:37:08;98544.28;;;16.15;68.00
72798;BME280;61084;55.816;37.036;2023-07-13T05:39:34;98548.59;;;16.25;68.18
72798;BME280;61084;55.816;37.036;2023-07-13T05:42:02;98536.50;;;16.32;67.85
72798;BME280;61084;55.816;37.036;2023-07-13T05:44:28;98539.44;;;16.39;67.39
72798;BME280;61084;55.816;37.036;2023-07-13T05:46:54;98540.28;;;16.39;67.28
72798;BME280;61084;55.816;37.036;2023-07-13T05:49:23;98539.44;;;16.48;67.23
72798;BME280;61084;55.816;37.036;2023-07-13T05:51:48;98533.63;;;16.54;67.22
72798;BME280;61084;55.816;37.036;2023-07-13T05:54:14;98529.16;;;16.55;67.00
72798;BME280;61084;55.816;37.036;2023-07-13T05:56:40;98530.41;;;16.61;67.08
72798;BME280;61084;55.816;37.036;2023-07-13T05:59:06;98525.38;;;16.67;66.52
72798;BME280;61084;55.816;37.036;2023-07-13T06:01:32;98531.09;;;16.72;66.38
72798;BME280;61084;55.816;37.036;2023-07-13T06:03:58;98530.94;;;16.83;66.46
72798;BME280;61084;55.816;37.036;2023-07-13T06:06:24;98534.84;;;16.98;66.66
72798;BME280;61084;55.816;37.036;2023-07-13T06:08:50;98526.84;;;17.08;66.07
72798;BME280;61084;55.816;37.036;2023-07-13T06:11:17;98517.06;;;17.18;66.27
72798;BME280;61084;55.816;37.036;2023-07-13T06:13:44;98518.41;;;17.31;65.64
72798;BME280;61084;55.816;37.036;2023-07-13T06:16:12;98521.88;;;17.32;65.41
72798;BME280;61084;55.816;37.036;2023-07-13T06:18:39;98516.75;;;17.30;64.43
72798;BME280;61084;55.816;37.036;2023-07-13T06:21:11;98520.09;;;17.32;65.02
72798;BME280;61084;55.816;37.036;2023-07-13T06:23:38;98524.13;;;17.37;64.81
72798;BME280;61084;55.816;37.036;2023-07-13T06:26:05;98524.13;;;17.37;64.96
72798;BME280;61084;55.816;37.036;2023-07-13T06:28:31;98524.66;;;17.40;64.71
72798;BME280;61084;55.816;37.036;2023-07-13T06:30:58;98527.88;;;17.44;64.72
72798;BME280;61084;55.816;37.036;2023-07-13T06:33:25;98532.06;;;17.46;64.23
72798;BME280;61084;55.816;37.036;2023-07-13T06:35:51;98522.41;;;17.45;63.84
72798;BME280;61084;55.816;37.036;2023-07-13T06:38:17;98530.81;;;17.50;64.00
72798;BME280;61084;55.816;37.036;2023-07-13T06:40:43;98520.19;;;17.50;63.57
72798;BME280;61084;55.816;37.036;2023-07-13T06:43:09;98534.16;;;17.52;63.12
72798;BME280;61084;55.816;37.036;2023-07-13T06:45:41;98520.72;;;17.54;63.21
72798;BME280;61084;55.816;37.036;2023-07-13T06:48:07;98532.72;;;17.58;63.78
72798;BME280;61084;55.816;37.036;2023-07-13T06:50:34;98516.06;;;17.65;63.24
72798;BME280;61084;55.816;37.036;2023-07-13T06:53:00;98515.31;;;17.73;64.07
72798;BME280;61084;55.816;37.036;2023-07-13T06:55:26;98517.41;;;17.79;63.58
72798;BME280;61084;55.816;37.036;2023-07-13T06:57:51;98510.66;;;17.84;63.55
72798;BME280;61084;55.816;37.036;2023-07-13T07:00:17;98510.91;;;17.91;63.82
72798;BME280;61084;55.816;37.036;2023-07-13T07:02:44;98515.94;;;17.94;63.85
72798;BME280;61084;55.816;37.036;2023-07-13T07:05:10;98512.09;;;17.96;63.78
72798;BME280;61084;55.816;37.036;2023-07-13T07:07:36;98516.00;;;18.02;63.81
72798;BME280;61084;55.816;37.036;2023-07-13T07:10:02;98521.84;;;18.05;63.39
72798;BME280;61084;55.816;37.036;2023-07-13T07:12:29;98508.72;;;18.04;63.46
72798;BME280;61084;55.816;37.036;2023-07-13T07:14:55;98518.38;;;18.05;63.04
72798;BME280;61084;55.816;37.036;2023-07-13T07:17:21;98514.19;;;18.02;62.76
72798;BME280;61084;55.816;37.036;2023-07-13T07:19:47;98520.47;;;18.01;62.89
72798;BME280;61084;55.816;37.036;2023-07-13T07:22:13;98519.50;;;18.02;63.06
72798;BME280;61084;55.816;37.036;2023-07-13T07:24:39;98528.44;;;18.01;62.74
72798;BME280;61084;55.816;37.036;2023-07-13T07:27:04;98527.91;;;17.98;62.92
72798;BME280;61084;55.816;37.036;2023-07-13T07:29:30;98533.50;;;17.95;62.59
72798;BME280;61084;55.816;37.036;2023-07-13T07:31:56;98532.66;;;17.94;62.98
72798;BME280;61084;55.816;37.036;2023-07-13T07:34:22;98528.34;;;17.93;62.82
72798;BME280;61084;55.816;37.036;2023-07-13T07:36:48;98525.03;;;17.91;62.62
72798;BME280;61084;55.816;37.036;2023-07-13T07:39:14;98538.81;;;17.95;63.07
72798;BME280;61084;55.816;37.036;2023-07-13T07:41:40;98524.69;;;17.94;62.95
72798;BME280;61084;55.816;37.036;2023-07-13T07:44:05;98529.88;;;17.96;63.04
72798;BME280;61084;55.816;37.036;2023-07-13T07:46:33;98518.94;;;17.99;63.10
72798;BME280;61084;55.816;37.036;2023-07-13T07:48:58;98533.50;;;17.95;62.39
72798;BME280;61084;55.816;37.036;2023-07-13T07:51:24;98538.28;;;17.91;62.76
72798;BME280;61084;55.816;37.036;2023-07-13T07:53:50;98530.16;;;17.93;62.51
72798;BME280;61084;55.816;37.036;2023-07-13T07:56:16;98535.19;;;17.96;62.99
72798;BME280;61084;55.816;37.036;2023-07-13T07:58:42;98528.75;;;17.98;63.16
72798;BME280;61084;55.816;37.036;2023-07-13T08:01:08;98534.75;;;18.00;63.14
72798;BME280;61084;55.816;37.036;2023-07-13T08:03:34;98530.41;;;17.99;62.78
72798;BME280;61084;55.816;37.036;2023-07-13T08:06:01;98540.19;;;17.99;63.13
72798;BME280;61084;55.816;37.036;2023-07-13T08:08:27;98533.22;;;17.98;63.20
72798;BME280;61084;55.816;37.036;2023-07-13T08:10:53;98542.84;;;17.99;63.02
72798;BME280;61084;55.816;37.036;2023-07-13T08:13:19;98531.41;;;17.98;63.15
72798;BME280;61084;55.816;37.036;2023-07-13T08:15:46;98534.19;;;17.97;62.72
72798;BME280;61084;55.816;37.036;2023-07-13T08:18:12;98550.44;;;17.94;62.70
72798;BME280;61084;55.816;37.036;2023-07-13T08:20:39;98547.63;;;17.95;62.96
72798;BME280;61084;55.816;37.036;2023-07-13T08:23:05;98552.66;;;17.98;62.99
72798;BME280;61084;55.816;37.036;2023-07-13T08:25:32;98542.03;;;17.98;63.24
72798;BME280;61084;55.816;37.036;2023-07-13T08:27:58;98554.75;;;17.95;63.02
72798;BME280;61084;55.816;37.036;2023-07-13T08:30:23;98546.94;;;17.93;63.30
72798;BME280;61084;55.816;37.036;2023-07-13T08:32:49;98552.25;;;17.93;63.79
72798;BME280;61084;55.816;37.036;2023-07-13T08:35:16;98545.94;;;17.94;64.06
72798;BME280;61084;55.816;37.036;2023-07-13T08:37:42;98555.00;;;18.01;63.96
72798;BME280;61084;55.816;37.036;2023-07-13T08:40:10;98551.38;;;18.02;64.12
72798;BME280;61084;55.816;37.036;2023-07-13T08:42:45;98551.91;;;18.06;64.23
72798;BME280;61084;55.816;37.036;2023-07-13T08:47:54;98547.72;;;18.03;63.88
72798;BME280;61084;55.816;37.036;2023-07-13T08:50:29;98552.75;;;18.06;63.92
72798;BME280;61084;55.816;37.036;2023-07-13T08:52:56;98554.28;;;18.09;64.38
72798;BME280;61084;55.816;37.036;2023-07-13T08:55:33;98546.16;;;18.11;64.18
72798;BME280;61084;55.816;37.036;2023-07-13T08:58:04;98549.25;;;18.06;64.28
72798;BME280;61084;55.816;37.036;2023-07-13T09:03:56;98550.72;;;18.18;65.22
72798;BME280;61084;55.816;37.036;2023-07-13T09:06:33;98548.06;;;18.18;64.55
72798;BME280;61084;55.816;37.036;2023-07-13T09:09:14;98543.66;;;18.09;63.78
72798;BME280;61084;55.816;37.036;2023-07-13T09:11:57;98548.97;;;18.09;64.10
72798;BME280;61084;55.816;37.036;2023-07-13T09:16:58;98549.94;;;18.08;64.71
72798;BME280;61084;55.816;37.036;2023-07-13T09:19:28;98549.78;;;18.09;64.97
72798;BME280;61084;55.816;37.036;2023-07-13T09:21:55;98547.13;;;18.09;64.69
72798;BME280;61084;55.816;37.036;2023-07-13T09:26:48;98555.31;;;18.16;64.50
72798;BME280;61084;55.816;37.036;2023-07-13T09:29:22;98562.31;;;18.17;64.87
72798;BME280;61084;55.816;37.036;2023-07-13T09:31:55;98564.13;;;18.17;64.68
72798;BME280;61084;55.816;37.036;2023-07-13T09:34:25;98566.66;;;18.18;64.79
72798;BME280;61084;55.816;37.036;2023-07-13T09:36:50;98569.31;;;18.18;64.94
72798;BME280;61084;55.816;37.036;2023-07-13T09:44:36;98577.63;;;18.05;64.74
72798;BME280;61084;55.816;37.036;2023-07-13T09:47:02;98575.81;;;18.06;64.75
72798;BME280;61084;55.816;37.036;2023-07-13T09:49:37;98577.09;;;18.02;64.99
72798;BME280;61084;55.816;37.036;2023-07-13T09:52:06;98578.22;;;17.99;64.76
72798;BME280;61084;55.816;37.036;2023-07-13T09:54:34;98572.22;;;17.97;64.67
72798;BME280;61084;55.816;37.036;2023-07-13T09:57:03;98566.06;;;17.97;65.27
72798;BME280;61084;55.816;37.036;2023-07-13T09:59:35;98564.09;;;17.99;65.34
72798;BME280;61084;55.816;37.036;2023-07-13T10:02:02;98572.38;;;17.96;65.18
72798;BME280;61084;55.816;37.036;2023-07-13T10:04:31;98570.00;;;17.93;65.24
72798;BME280;61084;55.816;37.036;2023-07-13T10:07:12;98577.97;;;17.93;65.42
72798;BME280;61084;55.816;37.036;2023-07-13T10:09:41;98574.47;;;17.92;65.36
72798;BME280;61084;55.816;37.036;2023-07-13T10:12:16;98582.44;;;17.92;65.95
72798;BME280;61084;55.816;37.036;2023-07-13T10:14:43;98580.91;;;17.90;65.76
72798;BME280;61084;55.816;37.036;2023-07-13T10:17:12;98581.75;;;17.90;65.73
72798;BME280;61084;55.816;37.036;2023-07-13T10:19:41;98581.75;;;17.90;65.64
72798;BME280;61084;55.816;37.036;2023-07-13T10:22:27;98584.41;;;17.90;66.03
72798;BME280;61084;55.816;37.036;2023-07-13T10:24:55;98581.75;;;17.90;66.14
72798;BME280;61084;55.816;37.036;2023-07-13T10:27:33;98588.06;;;17.89;65.51
72798;BME280;61084;55.816;37.036;2023-07-13T10:30:21;98591.69;;;17.88;66.08
72798;BME280;61084;55.816;37.036;2023-07-13T10:32:50;98586.53;;;17.87;66.08
72798;BME280;61084;55.816;37.036;2023-07-13T10:35:17;98586.53;;;17.87;65.93
72798;BME280;61084;55.816;37.036;2023-07-13T10:38:01;98578.56;;;17.87;66.21
72798;BME280;61084;55.816;37.036;2023-07-13T10:40:36;98580.22;;;17.88;66.12
72798;BME280;61084;55.816;37.036;2023-07-13T10:43:20;98582.19;;;17.86;65.90
72798;BME280;61084;55.816;37.036;2023-07-13T10:45:50;98579.00;;;17.82;65.84
72798;BME280;61084;55.816;37.036;2023-07-13T10:48:17;98577.31;;;17.81;65.98
72798;BME280;61084;55.816;37.036;2023-07-13T10:50:45;98574.81;;;17.80;66.10
72798;BME280;61084;55.816;37.036;2023-07-13T10:53:22;98571.19;;;17.81;66.70
72798;BME280;61084;55.816;37.036;2023-07-13T10:58:34;98570.34;;;17.80;66.57
72798;BME280;61084;55.816;37.036;2023-07-13T11:03:27;98578.47;;;17.79;66.55
72798;BME280;61084;55.816;37.036;2023-07-13T11:21:28;98571.63;;;17.76;66.73
72798;BME280;61084;55.816;37.036;2023-07-13T11:27:11;98569.94;;;17.75;67.11
72798;BME280;61084;55.816;37.036;2023-07-13T11:29:48;98569.09;;;17.75;66.91
72798;BME280;61084;55.816;37.036;2023-07-13T11:32:30;98573.44;;;17.76;67.22
72798;BME280;61084;55.816;37.036;2023-07-13T11:34:57;98571.06;;;17.73;67.14
72798;BME280;61084;55.816;37.036;2023-07-13T11:37:23;98572.75;;;17.74;67.23
72798;BME280;61084;55.816;37.036;2023-07-13T11:39:51;98570.94;;;17.74;66.83
72798;BME280;61084;55.816;37.036;2023-07-13T11:42:18;98564.09;;;17.72;67.31
72798;BME280;61084;55.816;37.036;2023-07-13T11:44:50;98572.34;;;17.69;67.69
72798;BME280;61084;55.816;37.036;2023-07-13T11:47:21;98567.47;;;17.64;67.25
72798;BME280;61084;55.816;37.036;2023-07-13T11:49:49;98563.84;;;17.65;67.08
72798;BME280;61084;55.816;37.036;2023-07-13T11:52:22;98569.00;;;17.67;67.53
72798;BME280;61084;55.816;37.036;2023-07-13T11:54:54;98567.19;;;17.67;67.72
72798;BME280;61084;55.816;37.036;2023-07-13T11:59:48;98564.25;;;17.70;67.99
72798;BME280;61084;55.816;37.036;2023-07-13T12:02:22;98566.75;;;17.72;67.49
72798;BME280;61084;55.816;37.036;2023-07-13T12:04:51;98564.09;;;17.72;67.19
72798;BME280;61084;55.816;37.036;2023-07-13T12:07:18;98560.59;;;17.71;67.39
72798;BME280;61084;55.816;37.036;2023-07-13T12:09:45;98560.16;;;17.76;67.57
72798;BME280;61084;55.816;37.036;2023-07-13T12:12:16;98561.81;;;17.77;67.86
72798;BME280;61084;55.816;37.036;2023-07-13T12:14:43;98547.88;;;17.75;67.64
72798;BME280;61084;55.816;37.036;2023-07-13T12:17:16;98551.19;;;17.77;67.38
72798;BME280;61084;55.816;37.036;2023-07-13T12:19:42;98554.69;;;17.77;67.44
72798;BME280;61084;55.816;37.036;2023-07-13T12:22:10;98546.06;;;17.75;67.39
72798;BME280;61084;55.816;37.036;2023-07-13T12:24:38;98553.84;;;17.77;67.58
72798;BME280;61084;55.816;37.036;2023-07-13T12:27:05;98555.69;;;17.76;67.46
72798;BME280;61084;55.816;37.036;2023-07-13T12:29:32;98561.97;;;17.75;68.22
72798;BME280;61084;55.816;37.036;2023-07-13T12:31:58;98555.00;;;17.74;67.77
72798;BME280;61084;55.816;37.036;2023-07-13T12:34:26;98550.50;;;17.75;67.90
72798;BME280;61084;55.816;37.036;2023-07-13T12:36:59;98549.81;;;17.73;67.72
72798;BME280;61084;55.816;37.036;2023-07-13T12:39:43;98546.22;;;17.74;68.08
72798;BME280;61084;55.816;37.036;2023-07-13T12:42:29;98539.91;;;17.75;68.13
72798;BME280;61084;55.816;37.036;2023-07-13T12:45:00;98543.41;;;17.75;67.71
72798;BME280;61084;55.816;37.036;2023-07-13T12:47:40;98542.56;;;17.75;68.34
72798;BME280;61084;55.816;37.036;2023-07-13T12:50:17;98542.72;;;17.73;68.04
72798;BME280;61084;55.816;37.036;2023-07-13T12:52:44;98543.16;;;17.69;67.68
72798;BME280;61084;55.816;37.036;2023-07-13T12:55:18;98544.69;;;17.71;67.91
72798;BME280;61084;55.816;37.036;2023-07-13T12:57:50;98560.59;;;17.71;68.29
72798;BME280;61084;55.816;37.036;2023-07-13T13:00:29;98552.78;;;17.70;68.12
72798;BME280;61084;55.816;37.036;2023-07-13T13:03:02;98556.41;;;17.69;68.26
72798;BME280;61084;55.816;37.036;2023-07-13T13:05:30;98560.34;;;17.65;67.79
72798;BME280;61084;55.816;37.036;2023-07-13T13:07:57;98555.19;;;17.63;67.94
72798;BME280;61084;55.816;37.036;2023-07-13T13:10:23;98558.69;;;17.64;67.91
72798;BME280;61084;55.816;37.036;2023-07-13T13:12:50;98557.69;;;17.65;68.05
72798;BME280;61084;55.816;37.036;2023-07-13T13:15:16;98543.75;;;17.63;67.75
72798;BME280;61084;55.816;37.036;2023-07-13T13:17:42;98545.88;;;17.59;67.66
72798;BME280;61084;55.816;37.036;2023-07-13T13:20:20;98548.50;;;17.59;67.62
72798;BME280;61084;55.816;37.036;2023-07-13T13:22:47;98545.16;;;17.57;67.78
72798;BME280;61084;55.816;37.036;2023-07-13T13:25:14;98547.25;;;17.54;67.74
72798;BME280;61084;55.816;37.036;2023-07-13T13:27:44;98541.41;;;17.50;67.75
72798;BME280;61084;55.816;37.036;2023-07-13T13:30:17;98551.88;;;17.52;67.86
72798;BME280;61084;55.816;37.036;2023-07-13T13:32:45;98546.28;;;17.45;67.74
72798;BME280;61084;55.816;37.036;2023-07-13T13:35:18;98546.44;;;17.44;67.54
72798;BME280;61084;55.816;37.036;2023-07-13T13:37:45;98546.56;;;17.42;67.83
72798;BME280;61084;55.816;37.036;2023-07-13T13:40:20;98545.75;;;17.42;68.13
72798;BME280;61084;55.816;37.036;2023-07-13T13:42:47;98545.06;;;17.40;68.13
72798;BME280;61084;55.816;37.036;2023-07-13T13:45:13;98547.03;;;17.38;68.01